createdAt,value
2024-03-02T00:02:24.014Z,4.21
2024-03-02T00:04:54.929Z,4.19
2024-03-02T00:07:26.185Z,4.23
2024-03-02T00:09:57.377Z,4.28
2024-03-02T00:12:27.352Z,4.26
2024-03-02T00:14:56.935Z,4.31
2024-03-02T00:17:28.853Z,4.32
2024-03-02T00:19:59.816Z,4.32
2024-03-02T00:22:29.416Z,4.30
2024-03-02T00:24:59.305Z,4.27
2024-03-02T00:27:29.558Z,4.28
2024-03-02T00:29:59.138Z,4.31
2024-03-02T00:32:29.923Z,4.28
2024-03-02T00:35:00.866Z,4.27
2024-03-02T00:37:30.640Z,4.24
2024-03-02T00:40:00.226Z,4.18
2024-03-02T00:45:33.771Z,4.20
2024-03-02T00:48:03.309Z,4.19
2024-03-02T00:50:34.092Z,4.15
2024-03-02T00:53:04.011Z,4.13
2024-03-02T00:55:33.498Z,4.12
2024-03-02T00:58:03.484Z,4.12
2024-03-02T01:00:34.368Z,4.07
2024-03-02T01:03:04.511Z,3.94
2024-03-02T01:05:33.949Z,3.90
2024-03-02T01:08:03.310Z,3.81
2024-03-02T01:10:32.976Z,3.85
2024-03-02T01:13:02.723Z,3.83
2024-03-02T01:15:34.568Z,3.78
2024-03-02T01:18:04.280Z,3.83
2024-03-02T01:20:34.110Z,3.79
2024-03-02T01:23:04.428Z,3.78
2024-03-02T01:25:33.837Z,3.83
2024-03-02T01:28:03.407Z,3.88
2024-03-02T01:30:34.535Z,3.89
2024-03-02T01:33:06.672Z,3.89
2024-03-02T01:35:37.101Z,3.90
2024-03-02T01:38:08.436Z,3.91
2024-03-02T01:40:38.184Z,3.90
2024-03-02T01:43:08.708Z,3.92
2024-03-02T01:45:39.930Z,3.93
2024-03-02T01:48:10.696Z,3.98
2024-03-02T01:50:40.676Z,4.00
2024-03-02T01:53:12.354Z,4.02
2024-03-02T01:55:41.804Z,4.06
2024-03-02T01:58:11.332Z,4.07
2024-03-02T02:00:42.479Z,4.11
2024-03-02T02:03:12.218Z,4.14
2024-03-02T02:05:41.835Z,4.16
2024-03-02T02:08:11.607Z,4.19
2024-03-02T02:10:41.417Z,4.18
2024-03-02T02:13:11.255Z,4.14
2024-03-02T02:15:42.557Z,4.14
2024-03-02T02:18:12.378Z,4.16
2024-03-02T02:20:42.016Z,4.17
2024-03-02T02:23:15.075Z,4.16
2024-03-02T02:25:44.850Z,4.14
2024-03-02T02:28:14.392Z,4.13
2024-03-02T02:30:44.136Z,4.14
2024-03-02T02:33:14.074Z,4.15
2024-03-02T02:35:43.830Z,4.15
2024-03-02T02:38:14.990Z,4.15
2024-03-02T02:40:44.511Z,4.06
2024-03-02T02:43:14.094Z,4.08
2024-03-02T02:45:43.791Z,4.10
2024-03-02T02:48:13.421Z,4.09
2024-03-02T02:50:44.032Z,4.03
2024-03-02T02:53:14.983Z,4.05
2024-03-02T02:55:44.998Z,4.09
2024-03-02T02:58:14.730Z,4.14
2024-03-02T03:00:44.555Z,4.14
2024-03-02T03:03:14.179Z,4.13
2024-03-02T03:05:43.748Z,4.14
2024-03-02T03:08:14.671Z,4.18
2024-03-02T03:10:44.370Z,4.21
2024-03-02T03:13:14.083Z,4.21
2024-03-02T03:15:43.801Z,4.21
2024-03-02T03:18:13.407Z,4.18
2024-03-02T03:20:42.986Z,4.15
2024-03-02T03:23:16.718Z,4.12
2024-03-02T03:25:46.335Z,4.14
2024-03-02T03:28:15.877Z,4.15
2024-03-02T03:30:45.508Z,4.15
2024-03-02T03:33:15.529Z,4.16
2024-03-02T03:35:45.054Z,4.19
2024-03-02T03:38:15.971Z,4.23
2024-03-02T03:40:46.371Z,4.28
2024-03-02T03:46:33.593Z,4.31
2024-03-02T03:49:03.106Z,4.31
2024-03-02T03:51:32.692Z,4.34
2024-03-02T03:54:02.220Z,4.38
2024-03-02T03:56:31.851Z,4.43
2024-03-02T03:59:01.363Z,4.51
2024-03-02T04:01:32.960Z,4.57
2024-03-02T04:04:04.856Z,4.54
2024-03-02T04:06:34.878Z,4.49
2024-03-02T04:09:05.281Z,4.43
2024-03-02T04:11:35.081Z,4.44
2024-03-02T04:14:04.617Z,4.44
2024-03-02T04:16:35.837Z,4.47
2024-03-02T04:19:05.494Z,4.48
2024-03-02T04:21:35.118Z,4.49
2024-03-02T04:24:04.759Z,4.50
2024-03-02T04:26:34.293Z,4.53
2024-03-02T04:29:04.005Z,4.55
2024-03-02T04:31:35.171Z,4.56
2024-03-02T04:34:04.797Z,4.59
2024-03-02T04:36:34.693Z,4.60
2024-03-02T04:39:04.320Z,4.61
2024-03-02T04:41:33.801Z,4.61
2024-03-02T04:44:03.352Z,4.64
2024-03-02T04:46:34.291Z,4.69
2024-03-02T04:49:03.874Z,4.69
2024-03-02T04:51:33.461Z,4.69
2024-03-02T04:54:02.999Z,4.70
2024-03-02T04:56:46.084Z,4.69
2024-03-02T04:59:15.735Z,4.71
2024-03-02T05:01:46.811Z,4.77
2024-03-02T05:04:16.441Z,4.83
2024-03-02T05:06:46.538Z,4.85
2024-03-02T05:09:16.720Z,4.83
2024-03-02T05:12:04.470Z,4.80
2024-03-02T05:14:33.872Z,4.75
2024-03-02T05:17:04.794Z,4.70
2024-03-02T05:19:34.195Z,4.65
2024-03-02T05:22:04.536Z,4.57
2024-03-02T05:24:34.100Z,4.48
2024-03-02T05:27:05.100Z,4.51
2024-03-02T05:29:34.710Z,4.57
2024-03-02T05:32:05.935Z,4.60
2024-03-02T05:34:36.910Z,4.63
2024-03-02T05:37:06.968Z,4.64
2024-03-02T05:39:36.534Z,4.63
2024-03-02T05:42:06.072Z,4.68
2024-03-02T05:44:35.994Z,4.77
2024-03-02T05:47:10.157Z,4.81
2024-03-02T05:49:40.679Z,4.83
2024-03-02T05:52:10.498Z,4.85
2024-03-02T05:54:40.052Z,4.88
2024-03-02T05:57:33.443Z,4.91
2024-03-02T06:00:03.013Z,4.94
2024-03-02T06:02:35.689Z,4.99
2024-03-02T06:05:08.499Z,5.02
2024-03-02T06:07:37.986Z,5.07
2024-03-02T06:10:12.725Z,5.08
2024-03-02T06:12:43.805Z,5.10
2024-03-02T06:15:13.397Z,5.11
2024-03-02T06:17:44.945Z,5.14
2024-03-02T06:20:14.969Z,5.18
2024-03-02T06:22:44.352Z,5.18
2024-03-02T06:25:14.640Z,5.23
2024-03-02T06:27:44.335Z,5.26
2024-03-02T06:30:15.528Z,5.33
2024-03-02T06:32:46.531Z,5.56
2024-03-02T06:35:16.266Z,5.71
2024-03-02T06:37:45.932Z,5.78
2024-03-02T06:40:15.471Z,5.88
2024-03-02T06:42:45.022Z,6.03
2024-03-02T06:46:33.692Z,6.06
2024-03-02T06:49:04.210Z,6.06
2024-03-02T06:51:33.950Z,6.08
2024-03-02T06:54:03.465Z,6.28
2024-03-02T06:56:34.431Z,6.52
2024-03-02T06:59:03.921Z,6.66
2024-03-02T07:01:34.823Z,6.59
2024-03-02T07:04:04.538Z,6.32
2024-03-02T07:06:33.944Z,6.07
2024-03-02T07:09:03.838Z,5.81
2024-03-02T07:11:33.282Z,5.67
2024-03-02T07:14:03.194Z,5.54
2024-03-02T07:16:36.048Z,5.40
2024-03-02T07:19:05.680Z,5.31
2024-03-02T07:21:35.312Z,5.20
2024-03-02T07:24:05.682Z,5.12
2024-03-02T07:29:07.754Z,5.03
2024-03-02T07:31:38.605Z,5.01
2024-03-02T07:34:08.210Z,5.08
2024-03-02T07:36:38.442Z,5.07
2024-03-02T07:39:08.990Z,4.96
2024-03-02T07:41:38.477Z,4.91
2024-03-02T07:44:08.214Z,4.86
2024-03-02T07:46:39.179Z,4.91
2024-03-02T07:49:08.762Z,4.94
2024-03-02T07:51:38.822Z,4.93
2024-03-02T07:54:08.831Z,4.95
2024-03-02T07:56:38.288Z,5.03
2024-03-02T07:59:08.774Z,5.18
2024-03-02T08:01:39.886Z,5.27
2024-03-02T08:04:10.400Z,5.35
2024-03-02T08:06:39.930Z,5.44
2024-03-02T08:09:11.882Z,5.47
2024-03-02T08:11:41.393Z,5.54
2024-03-02T08:14:11.043Z,5.67
2024-03-02T08:16:42.003Z,5.78
2024-03-02T08:19:11.840Z,5.82
2024-03-02T08:21:41.753Z,5.79
2024-03-02T08:24:11.497Z,5.75
2024-03-02T08:26:41.072Z,5.75
2024-03-02T08:29:10.597Z,5.77
2024-03-02T08:31:42.418Z,5.78
2024-03-02T08:34:12.221Z,5.82
2024-03-02T08:36:41.818Z,5.86
2024-03-02T08:39:17.018Z,5.88
2024-03-02T08:41:48.446Z,5.91
2024-03-02T08:44:18.469Z,5.96
2024-03-02T08:46:49.586Z,6.01
2024-03-02T08:49:19.076Z,6.09
2024-03-02T08:51:56.304Z,6.15
2024-03-02T08:54:26.084Z,6.24
2024-03-02T08:56:55.539Z,6.36
2024-03-02T08:59:26.488Z,6.43
2024-03-02T09:01:57.497Z,6.51
2024-03-02T09:04:28.215Z,6.58
2024-03-02T09:06:58.577Z,6.68
2024-03-02T09:09:28.201Z,6.78
2024-03-02T09:11:59.312Z,6.89
2024-03-02T09:14:29.150Z,7.00
2024-03-02T09:17:00.234Z,7.08
2024-03-02T09:19:29.810Z,7.16
2024-03-02T09:22:00.354Z,7.25
2024-03-02T09:24:29.991Z,7.37
2024-03-02T09:26:59.650Z,7.52
2024-03-02T09:29:29.303Z,7.60
2024-03-02T09:32:00.235Z,7.61
2024-03-02T09:34:29.860Z,7.64
2024-03-02T09:36:59.468Z,7.65
2024-03-02T09:39:29.119Z,7.68
2024-03-02T09:41:59.080Z,7.68
2024-03-02T09:46:34.036Z,7.67
2024-03-02T09:49:03.588Z,7.73
2024-03-02T09:51:33.291Z,7.77
2024-03-02T09:54:12.959Z,7.84
2024-03-02T09:56:48.190Z,7.90
2024-03-02T09:59:18.936Z,7.96
2024-03-02T10:02:01.974Z,8.09
2024-03-02T10:04:33.257Z,8.23
2024-03-02T10:07:23.803Z,8.35
2024-03-02T10:09:53.617Z,8.48
2024-03-02T10:12:23.972Z,8.58
2024-03-02T10:15:08.931Z,8.43
2024-03-02T10:17:39.805Z,8.26
2024-03-02T10:20:27.589Z,8.08
2024-03-02T10:22:57.262Z,7.94
2024-03-02T10:25:43.472Z,7.60
2024-03-02T10:28:20.977Z,7.40
2024-03-02T10:30:53.519Z,7.30
2024-03-02T10:33:24.430Z,7.24
2024-03-02T10:35:54.326Z,7.17
2024-03-02T10:38:24.193Z,7.10
2024-03-02T10:40:54.272Z,7.00
2024-03-02T10:43:24.511Z,6.93
2024-03-02T10:45:55.409Z,6.84
2024-03-02T10:48:29.337Z,6.77
2024-03-02T10:51:02.865Z,6.76
2024-03-02T10:53:32.440Z,6.67
2024-03-02T10:56:06.265Z,6.60
2024-03-02T10:58:36.887Z,6.65
2024-03-02T11:01:07.370Z,6.58
2024-03-02T11:03:40.114Z,6.59
2024-03-02T11:06:11.958Z,6.55
2024-03-02T11:08:43.772Z,6.48
2024-03-02T11:11:27.375Z,6.49
2024-03-02T11:14:00.840Z,6.50
2024-03-02T11:16:37.530Z,6.54
2024-03-02T11:19:13.900Z,6.54
2024-03-02T11:21:44.680Z,6.50
2024-03-02T11:24:38.092Z,6.47
2024-03-02T11:27:12.760Z,6.41
2024-03-02T11:29:50.212Z,6.38
2024-03-02T11:32:24.593Z,6.40
2024-03-02T11:34:56.815Z,6.40
2024-03-02T11:37:28.231Z,6.39
2024-03-02T11:39:58.053Z,6.40
2024-03-02T11:42:27.840Z,6.32
2024-03-02T11:45:00.734Z,6.31
2024-03-02T11:47:38.790Z,6.37
2024-03-02T11:50:11.746Z,6.35
2024-03-02T11:52:44.654Z,6.29
2024-03-02T11:55:16.351Z,6.26
2024-03-02T11:57:47.206Z,6.27
2024-03-02T12:00:21.822Z,6.33
2024-03-02T12:03:05.019Z,6.45
2024-03-02T12:05:37.013Z,6.56
2024-03-02T12:08:08.899Z,6.66
2024-03-02T12:10:39.721Z,6.72
2024-03-02T12:13:12.795Z,6.74
2024-03-02T12:15:43.054Z,6.79
2024-03-02T12:18:12.735Z,6.85
2024-03-02T12:20:43.763Z,6.93
2024-03-02T12:23:15.744Z,6.95
2024-03-02T12:25:46.159Z,7.00
2024-03-02T12:28:15.819Z,7.03
2024-03-02T12:30:45.804Z,7.04
2024-03-02T12:33:15.411Z,7.10
2024-03-02T12:35:46.372Z,7.21
2024-03-02T12:38:15.927Z,7.28
2024-03-02T12:40:45.476Z,7.41
2024-03-02T12:46:33.575Z,7.67
2024-03-02T12:49:12.442Z,7.60
2024-03-02T12:51:43.430Z,7.57
2024-03-02T12:54:13.983Z,7.54
2024-03-02T12:56:47.433Z,7.50
2024-03-02T12:59:22.771Z,7.46
2024-03-02T13:01:59.295Z,7.39
2024-03-02T13:04:29.818Z,7.29
2024-03-02T13:07:00.153Z,7.21
2024-03-02T13:09:30.712Z,7.16
2024-03-02T13:12:00.929Z,7.17
2024-03-02T13:14:30.423Z,7.13
2024-03-02T13:17:01.630Z,7.09
2024-03-02T13:19:32.596Z,7.07
2024-03-02T13:22:03.527Z,7.03
2024-03-02T13:24:34.421Z,6.99
2024-03-02T13:27:05.490Z,6.97
2024-03-02T13:29:35.054Z,6.96
2024-03-02T13:32:06.565Z,6.95
2024-03-02T13:34:36.116Z,6.91
2024-03-02T13:37:07.098Z,6.90
2024-03-02T13:39:41.564Z,6.92
2024-03-02T13:42:11.965Z,6.96
2024-03-02T13:44:41.799Z,6.99
2024-03-02T13:47:13.271Z,6.98
2024-03-02T13:49:45.284Z,7.00
2024-03-02T13:52:15.755Z,7.02
2024-03-02T13:54:48.076Z,7.01
2024-03-02T13:57:23.678Z,6.97
2024-03-02T13:59:56.006Z,6.90
2024-03-02T14:02:27.359Z,6.86
2024-03-02T14:04:56.800Z,6.82
2024-03-02T14:07:26.170Z,6.80
2024-03-02T14:09:55.753Z,6.78
2024-03-02T14:12:25.288Z,6.79
2024-03-02T14:14:56.962Z,6.84
2024-03-02T14:17:27.921Z,6.86
2024-03-02T14:19:58.500Z,6.90
2024-03-02T14:22:27.995Z,6.91
2024-03-02T14:24:57.637Z,6.93
2024-03-02T14:27:38.093Z,6.93
2024-03-02T14:30:17.330Z,6.90
2024-03-02T14:32:48.359Z,6.86
2024-03-02T14:35:18.032Z,6.85
2024-03-02T14:37:48.034Z,6.88
2024-03-02T14:40:17.891Z,6.90
2024-03-02T14:42:49.601Z,6.84
2024-03-02T14:45:19.212Z,6.84
2024-03-02T14:47:50.543Z,6.83
2024-03-02T14:50:20.266Z,6.84
2024-03-02T14:52:49.814Z,6.83
2024-03-02T14:55:19.395Z,6.77
2024-03-02T14:57:49.048Z,6.72
2024-03-02T15:00:19.808Z,6.71
2024-03-02T15:02:50.921Z,6.73
2024-03-02T15:05:20.477Z,6.74
2024-03-02T15:07:50.043Z,6.78
2024-03-02T15:10:19.937Z,6.82
2024-03-02T15:12:49.768Z,6.83
2024-03-02T15:15:19.378Z,6.83
2024-03-02T15:17:50.608Z,6.81
2024-03-02T15:20:21.858Z,6.78
2024-03-02T15:22:51.546Z,6.82
2024-03-02T15:25:21.077Z,6.83
2024-03-02T15:27:50.892Z,6.87
2024-03-02T15:30:20.458Z,6.90
2024-03-02T15:32:51.637Z,6.94
2024-03-02T15:35:21.099Z,6.94
2024-03-02T15:37:50.790Z,6.93
2024-03-02T15:40:20.586Z,6.91
2024-03-02T15:42:50.555Z,6.94
2024-03-02T15:46:33.290Z,6.98
2024-03-02T15:49:03.324Z,6.97
2024-03-02T15:51:32.965Z,6.99
2024-03-02T15:54:02.539Z,6.95
2024-03-02T15:56:32.315Z,6.93
2024-03-02T15:59:02.006Z,6.94
2024-03-02T16:01:32.935Z,6.94
2024-03-02T16:04:02.724Z,6.92
2024-03-02T16:06:32.435Z,6.89
2024-03-02T16:09:02.090Z,6.90
2024-03-02T16:11:31.527Z,6.86
2024-03-02T16:14:01.236Z,6.86
2024-03-02T16:16:32.234Z,6.80
2024-03-02T16:19:01.693Z,6.75
2024-03-02T16:21:31.382Z,6.71
2024-03-02T16:24:01.128Z,6.71
2024-03-02T16:26:31.715Z,6.68
2024-03-02T16:29:01.163Z,6.60
2024-03-02T16:31:32.158Z,6.61
2024-03-02T16:34:01.848Z,6.63
2024-03-02T16:36:34.096Z,6.65
2024-03-02T16:39:05.450Z,6.68
2024-03-02T16:41:35.037Z,6.71
2024-03-02T16:44:07.047Z,6.69
2024-03-02T16:46:39.872Z,6.66
2024-03-02T16:49:09.840Z,6.66
2024-03-02T16:51:42.625Z,6.61
2024-03-02T16:54:12.469Z,6.60
2024-03-02T16:56:42.464Z,6.57
2024-03-02T16:59:12.337Z,6.52
2024-03-02T17:01:43.219Z,6.46
2024-03-02T17:04:13.048Z,6.42
2024-03-02T17:06:42.723Z,6.44
2024-03-02T17:09:12.298Z,6.42
2024-03-02T17:11:43.067Z,6.35
2024-03-02T17:14:13.013Z,6.29
2024-03-02T17:16:43.922Z,6.23
2024-03-02T17:19:13.530Z,6.20
2024-03-02T17:21:43.122Z,6.13
2024-03-02T17:24:12.693Z,6.09
2024-03-02T17:26:42.475Z,6.09
2024-03-02T17:29:11.973Z,6.07
2024-03-02T17:31:43.269Z,5.98
2024-03-02T17:34:12.912Z,5.94
2024-03-02T17:36:42.889Z,5.90
2024-03-02T17:39:12.914Z,5.90
2024-03-02T17:41:42.458Z,5.85
2024-03-02T17:44:12.033Z,5.81
2024-03-02T17:46:43.830Z,5.81
2024-03-02T17:49:14.398Z,5.71
2024-03-02T17:51:44.821Z,5.65
2024-03-02T17:54:14.530Z,5.66
2024-03-02T17:56:43.889Z,5.60
2024-03-02T17:59:13.622Z,5.57
2024-03-02T18:01:44.756Z,5.49
2024-03-02T18:04:14.647Z,5.45
2024-03-02T18:06:44.310Z,5.44
2024-03-02T18:09:14.805Z,5.43
2024-03-02T18:11:46.272Z,5.44
2024-03-02T18:14:15.772Z,5.47
2024-03-02T18:16:46.578Z,5.49
2024-03-02T18:19:16.583Z,5.45
2024-03-02T18:21:47.488Z,5.42
2024-03-02T18:24:18.846Z,5.36
2024-03-02T18:26:48.354Z,5.27
2024-03-02T18:29:18.366Z,5.23
2024-03-02T18:31:49.412Z,5.09
2024-03-02T18:34:19.121Z,4.97
2024-03-02T18:36:48.889Z,4.83
2024-03-02T18:39:18.508Z,4.73
2024-03-02T18:41:47.932Z,4.70
2024-03-02T18:46:33.315Z,4.59
2024-03-02T18:49:02.981Z,4.50
2024-03-02T18:51:32.512Z,4.38
2024-03-02T18:54:02.251Z,4.36
2024-03-02T18:56:31.830Z,4.31
2024-03-02T18:59:01.416Z,4.20
2024-03-02T19:01:32.549Z,4.09
2024-03-02T19:04:02.182Z,4.03
2024-03-02T19:06:31.764Z,3.96
2024-03-02T19:09:01.366Z,3.93
2024-03-02T19:11:30.857Z,3.88
2024-03-02T19:14:00.374Z,3.81
2024-03-02T19:16:31.593Z,3.80
2024-03-02T19:19:01.257Z,3.68
2024-03-02T19:21:30.912Z,3.70
2024-03-02T19:24:01.036Z,3.63
2024-03-02T19:26:30.599Z,3.62
2024-03-02T19:29:00.192Z,3.54
2024-03-02T19:31:29.977Z,3.43
2024-03-02T19:34:01.029Z,3.38
2024-03-02T19:36:30.666Z,3.28
2024-03-02T19:39:00.374Z,3.23
2024-03-02T19:41:29.949Z,3.15
2024-03-02T19:43:59.450Z,3.09
2024-03-02T19:46:28.930Z,3.04
2024-03-02T19:48:59.886Z,2.97
2024-03-02T19:51:29.993Z,2.91
2024-03-02T19:54:00.770Z,2.89
2024-03-02T19:56:30.806Z,2.70
2024-03-02T19:59:00.786Z,2.65
2024-03-02T20:01:30.617Z,2.67
2024-03-02T20:04:01.819Z,2.65
2024-03-02T20:06:31.543Z,2.63
2024-03-02T20:09:01.148Z,2.58
2024-03-02T20:11:34.928Z,2.54
2024-03-02T20:14:04.779Z,2.51
2024-03-02T20:16:34.344Z,2.42
2024-03-02T20:19:05.819Z,2.41
2024-03-02T20:21:35.399Z,2.39
2024-03-02T20:24:04.885Z,2.34
2024-03-02T20:26:34.589Z,2.32
2024-03-02T20:29:04.868Z,2.31
2024-03-02T20:31:36.641Z,2.29
2024-03-02T20:34:07.790Z,2.28
2024-03-02T20:36:37.487Z,2.25
2024-03-02T20:39:07.926Z,2.23
2024-03-02T20:41:38.892Z,2.25
2024-03-02T20:44:08.569Z,2.25
2024-03-02T20:46:37.967Z,2.20
2024-03-02T20:49:08.955Z,2.18
2024-03-02T20:51:38.809Z,2.12
2024-03-02T20:54:08.412Z,2.10
2024-03-02T20:56:42.717Z,2.11
2024-03-02T20:59:12.451Z,2.10
2024-03-02T21:01:42.651Z,2.07
2024-03-02T21:04:16.778Z,2.05
2024-03-02T21:06:47.025Z,2.02
2024-03-02T21:09:16.718Z,1.98
2024-03-02T21:11:47.733Z,1.98
2024-03-02T21:14:17.477Z,1.94
2024-03-02T21:16:47.144Z,1.90
2024-03-02T21:19:18.201Z,1.89
2024-03-02T21:21:47.914Z,1.88
2024-03-02T21:24:17.432Z,1.85
2024-03-02T21:26:47.012Z,1.84
2024-03-02T21:29:21.363Z,1.81
2024-03-02T21:31:55.013Z,1.80
2024-03-02T21:34:25.973Z,1.73
2024-03-02T21:36:55.555Z,1.71
2024-03-02T21:39:32.150Z,1.67
2024-03-02T21:42:09.151Z,1.65
2024-03-02T21:46:33.234Z,1.64
2024-03-02T21:49:02.972Z,1.57
2024-03-02T21:51:32.683Z,1.52
2024-03-02T21:54:02.280Z,1.52
2024-03-02T21:56:31.928Z,1.47
2024-03-02T21:59:01.556Z,1.46
2024-03-02T22:01:32.654Z,1.44
2024-03-02T22:04:02.369Z,1.43
2024-03-02T22:06:32.179Z,1.44
2024-03-02T22:09:01.788Z,1.44
2024-03-02T22:11:31.416Z,1.45
2024-03-02T22:14:00.966Z,1.43
2024-03-02T22:16:32.149Z,1.43
2024-03-02T22:19:01.721Z,1.41
2024-03-02T22:21:31.351Z,1.41
2024-03-02T22:24:00.993Z,1.39
2024-03-02T22:26:30.568Z,1.40
2024-03-02T22:29:00.185Z,1.36
2024-03-02T22:31:30.563Z,1.36
2024-03-02T22:34:01.496Z,1.38
2024-03-02T22:36:31.012Z,1.38
2024-03-02T22:39:00.508Z,1.37
2024-03-02T22:41:30.010Z,1.28
2024-03-02T22:43:59.891Z,1.23
2024-03-02T22:46:29.441Z,1.19
2024-03-02T22:49:00.319Z,1.19
2024-03-02T22:51:30.454Z,1.19
2024-03-02T22:53:59.936Z,1.17
2024-03-02T22:56:29.472Z,1.21
2024-03-02T22:58:59.303Z,1.19
2024-03-02T23:01:28.898Z,1.11
2024-03-02T23:03:59.970Z,1.02
2024-03-02T23:06:29.507Z,0.96
2024-03-02T23:08:59.189Z,0.97
2024-03-02T23:11:28.985Z,0.98
2024-03-02T23:13:58.628Z,0.96
2024-03-02T23:16:30.322Z,0.93
2024-03-02T23:19:01.460Z,0.87
2024-03-02T23:21:31.073Z,0.86
2024-03-02T23:24:00.559Z,0.84
2024-03-02T23:26:30.203Z,0.86
2024-03-02T23:28:59.957Z,0.83
2024-03-02T23:31:29.933Z,0.79
2024-03-02T23:34:05.207Z,0.72
2024-03-02T23:36:34.930Z,0.78
2024-03-02T23:39:05.938Z,0.79
2024-03-02T23:41:35.492Z,0.76
2024-03-02T23:44:08.901Z,0.71
2024-03-02T23:46:38.557Z,0.63
2024-03-02T23:49:09.485Z,0.62
2024-03-02T23:51:39.015Z,0.63
2024-03-02T23:54:08.640Z,0.67
2024-03-02T23:56:38.080Z,0.63
2024-03-02T23:59:07.659Z,0.60
